createdAt,value
2022-12-24T00:01:39.460Z,8.10
2022-12-24T00:05:49.442Z,2.70
2022-12-24T00:07:54.744Z,10.13
2022-12-24T00:09:59.660Z,14.18
2022-12-24T00:12:04.978Z,7.53
2022-12-24T00:14:10.097Z,11.88
2022-12-24T00:16:16.224Z,8.05
2022-12-24T00:18:23.752Z,21.13
2022-12-24T00:20:29.095Z,7.43
2022-12-24T00:22:34.052Z,10.93
2022-12-24T00:24:39.573Z,15.07
2022-12-24T00:26:44.524Z,8.57
2022-12-24T00:28:49.542Z,10.05
2022-12-24T00:30:54.488Z,8.38
2022-12-24T00:32:59.487Z,9.60
2022-12-24T00:35:07.763Z,3.25
2022-12-24T00:37:13.020Z,8.73
2022-12-24T00:39:19.266Z,8.35
2022-12-24T00:41:29.610Z,9.90
2022-12-24T00:43:35.090Z,7.47
2022-12-24T00:45:40.043Z,6.75
2022-12-24T00:47:45.539Z,9.32
2022-12-24T00:49:50.499Z,8.68
2022-12-24T00:51:58.047Z,5.57
2022-12-24T00:56:09.833Z,7.22
2022-12-24T00:58:14.808Z,11.77
2022-12-24T01:00:20.714Z,10.38
2022-12-24T01:02:26.219Z,5.82
2022-12-24T01:04:43.732Z,7.25
2022-12-24T01:06:48.689Z,2.72
2022-12-24T01:08:56.195Z,9.10
2022-12-24T01:11:01.943Z,10.32
2022-12-24T01:13:07.180Z,4.38
2022-12-24T01:15:14.308Z,9.07
2022-12-24T01:17:19.722Z,12.50
2022-12-24T01:19:24.703Z,7.88
2022-12-24T01:21:29.613Z,9.15
2022-12-24T01:23:35.098Z,4.10
2022-12-24T01:25:45.784Z,7.55
2022-12-24T01:27:50.747Z,6.80
2022-12-24T01:29:55.656Z,4.72
2022-12-24T01:32:00.997Z,12.30
2022-12-24T01:34:06.305Z,11.10
2022-12-24T01:36:13.373Z,3.25
2022-12-24T01:38:18.684Z,7.15
2022-12-24T01:40:36.180Z,7.53
2022-12-24T01:43:02.009Z,9.80
2022-12-24T01:45:43.310Z,7.78
2022-12-24T01:47:48.555Z,6.07
2022-12-24T01:49:58.982Z,6.75
2022-12-24T01:52:08.371Z,11.35
2022-12-24T01:54:19.023Z,7.28
2022-12-24T01:56:24.516Z,13.77
2022-12-24T01:58:32.617Z,9.57
2022-12-24T02:00:37.816Z,4.18
2022-12-24T02:02:47.189Z,9.25
2022-12-24T02:05:00.359Z,7.13
2022-12-24T02:07:05.368Z,6.88
2022-12-24T02:09:10.354Z,8.15
2022-12-24T02:11:20.470Z,8.23
2022-12-24T02:13:32.933Z,4.72
2022-12-24T02:15:48.637Z,8.57
2022-12-24T02:18:07.716Z,8.50
2022-12-24T02:20:55.481Z,9.43
2022-12-24T02:23:46.776Z,13.05
2022-12-24T02:26:21.144Z,7.40
2022-12-24T02:28:47.113Z,11.23
2022-12-24T02:31:01.865Z,12.98
2022-12-24T02:33:25.596Z,9.70
2022-12-24T02:35:40.535Z,8.90
2022-12-24T02:37:52.163Z,12.55
2022-12-24T02:40:04.860Z,11.50
2022-12-24T02:42:14.578Z,9.90
2022-12-24T02:44:23.378Z,5.75
2022-12-24T02:46:34.929Z,9.40
2022-12-24T02:48:44.132Z,12.88
2022-12-24T02:51:06.531Z,9.57
2022-12-24T02:53:13.369Z,9.00
2022-12-24T02:55:24.719Z,12.32
2022-12-24T02:57:41.820Z,12.93
2022-12-24T03:00:05.229Z,12.18
2022-12-24T03:02:27.180Z,11.93
2022-12-24T03:04:44.225Z,11.68
2022-12-24T03:07:01.510Z,12.50
2022-12-24T03:09:17.394Z,8.85
2022-12-24T03:11:22.788Z,5.88
2022-12-24T03:13:29.699Z,11.05
2022-12-24T03:15:36.279Z,13.15
2022-12-24T03:17:50.593Z,10.60
2022-12-24T03:19:58.125Z,10.50
2022-12-24T03:22:07.205Z,8.15
2022-12-24T03:24:13.443Z,16.35
2022-12-24T03:26:21.969Z,15.18
2022-12-24T03:28:31.140Z,11.65
2022-12-24T03:30:36.314Z,14.43
2022-12-24T03:32:44.603Z,11.57
2022-12-24T03:34:49.534Z,12.25
2022-12-24T03:36:54.642Z,10.52
2022-12-24T03:38:59.574Z,13.02
2022-12-24T03:41:05.008Z,11.07
2022-12-24T03:43:09.913Z,12.13
2022-12-24T03:45:14.835Z,11.05
2022-12-24T03:47:19.788Z,16.42
2022-12-24T03:49:27.308Z,13.05
2022-12-24T03:51:33.355Z,14.55
2022-12-24T03:53:38.295Z,12.30
2022-12-24T03:55:44.170Z,13.25
2022-12-24T03:57:49.550Z,18.25
2022-12-24T03:59:54.639Z,9.90
2022-12-24T04:01:59.721Z,12.10
2022-12-24T04:04:05.262Z,14.13
2022-12-24T04:06:16.029Z,11.80
2022-12-24T04:08:20.976Z,14.27
2022-12-24T04:10:25.968Z,13.20
2022-12-24T04:12:31.259Z,13.02
2022-12-24T04:14:37.118Z,9.82
2022-12-24T04:16:42.148Z,15.25
2022-12-24T04:18:48.048Z,11.75
2022-12-24T04:20:53.327Z,13.15
2022-12-24T04:23:00.834Z,15.13
2022-12-24T04:25:06.227Z,16.15
2022-12-24T04:27:11.506Z,11.85
2022-12-24T04:29:16.476Z,14.13
2022-12-24T04:31:22.463Z,12.32
2022-12-24T04:33:27.457Z,14.82
2022-12-24T04:35:32.421Z,17.27
2022-12-24T04:37:37.914Z,12.95
2022-12-24T04:39:45.470Z,12.32
2022-12-24T04:41:50.426Z,14.23
2022-12-24T04:43:57.618Z,11.18
2022-12-24T04:46:08.703Z,15.07
2022-12-24T04:48:14.005Z,13.10
2022-12-24T04:50:19.443Z,17.10
2022-12-24T04:52:24.380Z,15.18
2022-12-24T04:54:29.836Z,12.70
2022-12-24T04:56:37.328Z,16.67
2022-12-24T04:58:42.953Z,14.15
2022-12-24T05:00:47.989Z,17.45
2022-12-24T05:02:53.387Z,15.25
2022-12-24T05:04:59.656Z,11.63
2022-12-24T05:07:04.918Z,12.45
2022-12-24T05:09:09.894Z,11.90
2022-12-24T05:11:15.903Z,19.17
2022-12-24T05:13:23.393Z,13.75
2022-12-24T05:15:28.386Z,12.77
2022-12-24T05:17:34.057Z,14.95
2022-12-24T05:19:39.047Z,12.70
2022-12-24T05:21:44.332Z,9.75
2022-12-24T05:24:02.218Z,12.48
2022-12-24T05:26:22.596Z,14.18
2022-12-24T05:28:30.489Z,14.35
2022-12-24T05:30:35.798Z,15.70
2022-12-24T05:32:40.804Z,13.38
2022-12-24T05:34:46.430Z,10.60
2022-12-24T05:36:51.339Z,16.10
2022-12-24T05:38:56.622Z,16.23
2022-12-24T05:41:01.920Z,6.57
2022-12-24T05:43:07.251Z,14.82
2022-12-24T05:45:15.182Z,13.45
2022-12-24T05:49:25.625Z,20.00
2022-12-24T05:51:30.682Z,16.10
2022-12-24T05:53:36.392Z,16.75
2022-12-24T05:55:41.955Z,14.55
2022-12-24T05:57:47.104Z,6.90
2022-12-24T05:59:52.067Z,9.57
2022-12-24T06:02:00.072Z,15.75
2022-12-24T06:04:05.551Z,12.93
2022-12-24T06:06:13.264Z,16.67
2022-12-24T06:08:18.872Z,15.60
2022-12-24T06:10:23.857Z,13.20
2022-12-24T06:12:29.570Z,11.35
2022-12-24T06:14:34.901Z,13.05
2022-12-24T06:16:40.017Z,11.82
2022-12-24T06:18:48.446Z,13.13
2022-12-24T06:20:54.876Z,12.68
2022-12-24T06:22:59.834Z,13.05
2022-12-24T06:25:05.341Z,12.27
2022-12-24T06:27:10.288Z,9.98
2022-12-24T06:29:15.195Z,15.50
2022-12-24T06:31:24.065Z,13.80
2022-12-24T06:33:29.099Z,20.17
2022-12-24T06:35:37.460Z,19.55
2022-12-24T06:37:42.823Z,16.42
2022-12-24T06:39:48.679Z,14.00
2022-12-24T06:41:54.215Z,13.82
2022-12-24T06:43:59.457Z,14.52
2022-12-24T06:46:05.733Z,13.73
2022-12-24T06:48:10.727Z,17.48
2022-12-24T06:50:16.664Z,16.50
2022-12-24T06:52:24.986Z,13.15
2022-12-24T06:54:29.905Z,15.27
2022-12-24T06:56:35.474Z,13.63
2022-12-24T06:58:41.003Z,13.23
2022-12-24T07:00:45.977Z,14.20
2022-12-24T07:02:51.522Z,13.43
2022-12-24T07:04:56.900Z,21.13
2022-12-24T07:07:01.900Z,14.90
2022-12-24T07:09:09.470Z,12.68
2022-12-24T07:11:14.767Z,16.00
2022-12-24T07:13:20.524Z,15.63
2022-12-24T07:15:25.444Z,14.63
2022-12-24T07:17:30.996Z,18.77
2022-12-24T07:19:36.138Z,20.83
2022-12-24T07:21:41.124Z,23.25
2022-12-24T07:23:46.053Z,29.42
2022-12-24T07:25:54.084Z,20.10
2022-12-24T07:27:59.360Z,22.52
2022-12-24T07:30:04.263Z,20.45
2022-12-24T07:32:09.368Z,20.00
2022-12-24T07:34:14.942Z,12.40
2022-12-24T07:36:24.555Z,16.45
2022-12-24T07:38:29.944Z,24.35
2022-12-24T07:40:36.911Z,18.77
2022-12-24T07:42:44.470Z,21.97
2022-12-24T07:44:50.165Z,24.48
2022-12-24T07:46:55.170Z,23.17
2022-12-24T07:49:01.374Z,22.33
2022-12-24T07:51:07.016Z,21.50
2022-12-24T07:53:12.314Z,25.92
2022-12-24T07:55:17.817Z,27.95
2022-12-24T07:57:22.799Z,27.73
2022-12-24T07:59:30.374Z,26.13
2022-12-24T08:01:35.360Z,23.17
2022-12-24T08:03:41.335Z,18.35
2022-12-24T08:05:46.450Z,20.80
2022-12-24T08:07:51.703Z,20.08
2022-12-24T08:09:56.828Z,26.33
2022-12-24T08:12:02.434Z,14.55
2022-12-24T08:14:07.369Z,14.90
2022-12-24T08:16:15.435Z,20.83
2022-12-24T08:18:20.343Z,17.10
2022-12-24T08:20:25.417Z,17.85
2022-12-24T08:22:31.388Z,14.55
2022-12-24T08:24:37.510Z,10.73
2022-12-24T08:26:42.816Z,18.10
2022-12-24T08:28:47.797Z,16.08
2022-12-24T08:30:54.294Z,17.15
2022-12-24T08:33:01.841Z,7.45
2022-12-24T08:35:07.829Z,11.90
2022-12-24T08:37:13.498Z,11.32
2022-12-24T08:39:18.588Z,12.88
2022-12-24T08:41:23.706Z,11.15
2022-12-24T08:43:29.276Z,14.05
2022-12-24T08:45:40.152Z,13.68
2022-12-24T08:47:46.999Z,10.27
2022-12-24T08:49:54.581Z,12.60
2022-12-24T08:52:01.330Z,9.65
2022-12-24T08:54:06.702Z,15.95
2022-12-24T08:56:13.139Z,15.35
2022-12-24T08:58:18.087Z,16.30
2022-12-24T09:00:24.050Z,12.52
2022-12-24T09:02:29.064Z,12.30
2022-12-24T09:04:34.182Z,16.13
2022-12-24T09:06:41.727Z,15.50
2022-12-24T09:08:47.764Z,12.38
2022-12-24T09:10:53.434Z,15.98
2022-12-24T09:12:58.731Z,17.55
2022-12-24T09:15:04.466Z,17.98
2022-12-24T09:17:09.752Z,12.70
2022-12-24T09:19:14.687Z,7.68
2022-12-24T09:21:20.624Z,10.02
2022-12-24T09:23:28.151Z,11.05
2022-12-24T09:25:33.064Z,10.25
2022-12-24T09:27:38.434Z,15.70
2022-12-24T09:29:43.478Z,10.75
2022-12-24T09:31:50.146Z,13.68
2022-12-24T09:33:55.360Z,10.00
2022-12-24T09:36:00.611Z,13.85
2022-12-24T09:38:05.702Z,11.13
2022-12-24T09:40:27.804Z,13.27
2022-12-24T09:42:47.117Z,11.18
2022-12-24T09:45:00.416Z,12.02
2022-12-24T09:47:14.127Z,16.23
2022-12-24T09:49:24.979Z,11.10
2022-12-24T09:51:37.325Z,15.70
2022-12-24T09:53:50.059Z,15.00
2022-12-24T09:56:02.796Z,10.93
2022-12-24T09:58:09.956Z,16.55
2022-12-24T10:00:24.093Z,20.75
2022-12-24T10:02:29.772Z,14.45
2022-12-24T10:04:34.877Z,21.23
2022-12-24T10:06:50.395Z,16.67
2022-12-24T10:09:09.179Z,20.27
2022-12-24T10:11:26.346Z,23.83
2022-12-24T10:13:51.401Z,15.52
2022-12-24T10:16:06.424Z,13.98
2022-12-24T10:18:26.808Z,18.70
2022-12-24T10:20:47.093Z,15.77
2022-12-24T10:23:02.850Z,18.98
2022-12-24T10:25:20.105Z,18.98
2022-12-24T10:27:33.371Z,13.52
2022-12-24T10:29:42.959Z,20.40
2022-12-24T10:31:56.947Z,19.58
2022-12-24T10:34:05.648Z,15.20
2022-12-24T10:36:14.807Z,18.95
2022-12-24T10:38:19.812Z,12.80
2022-12-24T10:40:35.111Z,11.68
2022-12-24T10:42:50.923Z,15.27
2022-12-24T10:45:03.930Z,13.90
2022-12-24T10:47:12.229Z,15.55
2022-12-24T10:49:20.675Z,14.77
2022-12-24T10:51:36.351Z,21.80
2022-12-24T10:53:47.271Z,16.60
2022-12-24T10:55:52.305Z,15.15
2022-12-24T10:58:07.768Z,19.80
2022-12-24T11:00:29.984Z,10.35
2022-12-24T11:02:41.332Z,16.42
2022-12-24T11:04:52.355Z,21.38
2022-12-24T11:07:04.833Z,17.27
2022-12-24T11:09:24.196Z,19.48
2022-12-24T11:11:29.854Z,19.38
2022-12-24T11:13:42.949Z,15.68
2022-12-24T11:15:48.155Z,13.77
2022-12-24T11:17:56.991Z,17.00
2022-12-24T11:20:03.426Z,14.32
2022-12-24T11:22:11.236Z,14.43
2022-12-24T11:26:34.569Z,13.10
2022-12-24T11:28:42.106Z,17.30
2022-12-24T11:31:01.701Z,14.93
2022-12-24T11:33:22.659Z,17.25
2022-12-24T11:35:28.327Z,13.90
2022-12-24T11:37:33.349Z,14.60
2022-12-24T11:39:44.193Z,16.80
2022-12-24T11:41:50.999Z,17.20
2022-12-24T11:44:07.906Z,16.77
2022-12-24T11:46:39.216Z,18.50
2022-12-24T11:48:44.232Z,16.23
2022-12-24T11:51:00.419Z,15.35
2022-12-24T11:53:13.880Z,22.80
2022-12-24T11:55:26.357Z,13.88
2022-12-24T11:57:40.120Z,20.30
2022-12-24T11:59:52.247Z,14.43
2022-12-24T12:02:03.290Z,16.30
2022-12-24T12:04:15.793Z,19.77
2022-12-24T12:06:32.308Z,15.57
2022-12-24T12:08:40.144Z,10.85
2022-12-24T12:10:48.856Z,18.80
2022-12-24T12:13:02.827Z,17.40
2022-12-24T12:15:19.662Z,15.57
2022-12-24T12:17:35.467Z,18.25
2022-12-24T12:19:46.578Z,11.68
2022-12-24T12:21:54.581Z,16.70
2022-12-24T12:24:06.226Z,18.02
2022-12-24T12:26:17.986Z,18.75
2022-12-24T12:28:28.127Z,18.67
2022-12-24T12:30:38.551Z,15.07
2022-12-24T12:32:51.435Z,16.38
2022-12-24T12:35:07.984Z,17.30
2022-12-24T12:37:19.569Z,13.80
2022-12-24T12:39:24.516Z,17.65
2022-12-24T12:41:55.437Z,15.73
2022-12-24T12:44:24.445Z,19.42
2022-12-24T12:46:46.229Z,18.08
2022-12-24T12:49:17.259Z,17.52
2022-12-24T12:51:31.506Z,12.95
2022-12-24T12:53:53.119Z,13.93
2022-12-24T12:56:09.342Z,19.50
2022-12-24T12:58:23.049Z,9.68
2022-12-24T13:00:28.502Z,18.02
2022-12-24T13:02:59.877Z,22.10
2022-12-24T13:05:52.126Z,17.08
2022-12-24T13:08:39.746Z,20.25
2022-12-24T13:11:15.892Z,19.52
2022-12-24T13:13:42.146Z,18.50
2022-12-24T13:16:15.972Z,18.02
2022-12-24T13:18:46.887Z,12.80
2022-12-24T13:20:55.271Z,18.20
2022-12-24T13:23:03.226Z,14.88
2022-12-24T13:25:09.416Z,20.35
2022-12-24T13:27:21.317Z,14.73
2022-12-24T13:29:34.734Z,15.38
2022-12-24T13:31:39.727Z,12.27
2022-12-24T13:33:54.795Z,16.80
2022-12-24T13:36:03.223Z,18.52
2022-12-24T13:38:42.337Z,17.40
2022-12-24T13:40:47.291Z,22.88
2022-12-24T13:43:12.575Z,18.50
2022-12-24T13:45:46.631Z,23.45
2022-12-24T13:47:52.931Z,18.80
2022-12-24T13:50:15.193Z,15.02
2022-12-24T13:52:29.080Z,17.20
2022-12-24T13:54:34.296Z,18.60
2022-12-24T13:56:39.957Z,15.82
2022-12-24T13:58:50.250Z,16.35
2022-12-24T14:00:59.189Z,18.27
2022-12-24T14:03:10.754Z,18.50
2022-12-24T14:05:30.712Z,17.75
2022-12-24T14:07:37.714Z,19.15
2022-12-24T14:09:51.778Z,18.90
2022-12-24T14:12:34.207Z,16.58
2022-12-24T14:14:41.444Z,15.95
2022-12-24T14:16:53.368Z,22.25
2022-12-24T14:19:03.858Z,19.35
2022-12-24T14:21:20.613Z,23.30
2022-12-24T14:23:44.252Z,18.83
2022-12-24T14:25:49.380Z,19.30
2022-12-24T14:28:01.370Z,20.65
2022-12-24T14:30:12.832Z,20.10
2022-12-24T14:32:19.344Z,22.27
2022-12-24T14:34:24.294Z,23.17
2022-12-24T14:38:40.070Z,20.85
2022-12-24T14:40:56.227Z,21.38
2022-12-24T14:43:09.651Z,15.02
2022-12-24T14:45:29.042Z,16.85
2022-12-24T14:47:43.197Z,15.13
2022-12-24T14:50:07.349Z,21.67
2022-12-24T14:53:03.513Z,19.75
2022-12-24T14:54:53.711Z,16.27
2022-12-24T14:57:22.388Z,23.85
2022-12-24T14:59:27.921Z,15.82
2022-12-24T15:01:39.120Z,18.50
2022-12-24T15:03:44.255Z,18.63
2022-12-24T15:05:55.679Z,19.60
2022-12-24T15:08:06.859Z,20.02
2022-12-24T15:10:31.798Z,15.77
2022-12-24T15:12:37.301Z,18.70
2022-12-24T15:14:46.698Z,19.98
2022-12-24T15:16:57.955Z,23.85
2022-12-24T15:19:08.464Z,17.75
2022-12-24T15:21:21.152Z,20.55
2022-12-24T15:23:32.530Z,16.02
2022-12-24T15:25:37.748Z,15.35
2022-12-24T15:27:42.992Z,19.88
2022-12-24T15:29:52.009Z,22.58
2022-12-24T15:31:58.137Z,19.23
2022-12-24T15:34:03.609Z,23.10
2022-12-24T15:36:11.462Z,19.38
2022-12-24T15:40:42.964Z,28.83
2022-12-24T15:42:48.236Z,14.13
2022-12-24T15:45:03.490Z,17.13
2022-12-24T15:47:17.104Z,18.02
2022-12-24T15:49:30.679Z,17.88
2022-12-24T15:51:40.688Z,26.83
2022-12-24T15:53:49.223Z,17.50
2022-12-24T15:56:10.422Z,20.77
2022-12-24T15:58:21.333Z,24.27
2022-12-24T16:00:31.227Z,19.17
2022-12-24T16:02:42.341Z,26.00
2022-12-24T16:04:47.751Z,22.10
2022-12-24T16:06:58.872Z,29.35
2022-12-24T16:09:44.164Z,26.27
2022-12-24T16:11:49.162Z,24.05
2022-12-24T16:14:09.333Z,24.45
2022-12-24T16:16:17.828Z,25.35
2022-12-24T16:18:28.532Z,28.58
2022-12-24T16:20:35.981Z,26.35
2022-12-24T16:22:41.941Z,25.20
2022-12-24T16:24:49.717Z,24.90
2022-12-24T16:29:00.153Z,27.48
2022-12-24T16:31:05.843Z,30.77
2022-12-24T16:33:17.566Z,28.85
2022-12-24T16:35:29.271Z,26.80
2022-12-24T16:37:34.714Z,21.55
2022-12-24T16:39:40.434Z,27.75
2022-12-24T16:42:00.527Z,25.05
2022-12-24T16:44:05.913Z,25.73
2022-12-24T16:46:11.231Z,23.45
2022-12-24T16:48:23.945Z,30.40
2022-12-24T16:50:29.027Z,19.63
2022-12-24T16:52:35.420Z,23.92
2022-12-24T16:54:40.362Z,24.20
2022-12-24T16:56:48.364Z,19.42
2022-12-24T16:58:53.309Z,22.23
2022-12-24T17:00:59.815Z,17.33
2022-12-24T17:03:04.972Z,14.00
2022-12-24T17:05:11.835Z,15.77
2022-12-24T17:07:19.967Z,19.35
2022-12-24T17:09:24.877Z,21.08
2022-12-24T17:11:30.203Z,29.10
2022-12-24T17:13:37.716Z,21.42
2022-12-24T17:15:44.976Z,22.17
2022-12-24T17:17:50.165Z,19.75
2022-12-24T17:19:55.647Z,24.80
2022-12-24T17:22:01.567Z,22.52
2022-12-24T17:24:07.420Z,22.80
2022-12-24T17:26:15.335Z,22.30
2022-12-24T17:28:20.783Z,30.67
2022-12-24T17:30:28.371Z,28.52
2022-12-24T17:32:33.494Z,27.42
2022-12-24T17:34:38.737Z,38.78
2022-12-24T17:36:43.826Z,34.45
2022-12-24T17:38:49.041Z,21.63
2022-12-24T17:40:54.021Z,25.02
2022-12-24T17:42:59.258Z,36.38
2022-12-24T17:45:04.626Z,28.67
2022-12-24T17:47:12.311Z,32.63
2022-12-24T17:49:17.472Z,35.95
2022-12-24T17:51:25.740Z,31.92
2022-12-24T17:55:35.461Z,34.25
2022-12-24T17:57:40.879Z,35.03
2022-12-24T17:59:45.863Z,35.15
2022-12-24T18:01:50.941Z,30.20
2022-12-24T18:04:02.556Z,23.92
2022-12-24T18:06:09.732Z,32.08
2022-12-24T18:08:14.667Z,25.85
2022-12-24T18:10:21.089Z,28.85
2022-12-24T18:12:26.069Z,35.08
2022-12-24T18:14:31.092Z,32.58
2022-12-24T18:16:38.984Z,35.92
2022-12-24T18:18:44.456Z,26.90
2022-12-24T18:20:52.959Z,30.42
2022-12-24T18:22:58.015Z,29.40
2022-12-24T18:25:02.901Z,37.35
2022-12-24T18:27:08.172Z,28.30
2022-12-24T18:29:13.268Z,49.17
2022-12-24T18:31:21.948Z,30.85
2022-12-24T18:33:26.948Z,36.05
2022-12-24T18:35:31.886Z,39.28
2022-12-24T18:37:39.808Z,32.88
2022-12-24T18:41:51.029Z,37.30
2022-12-24T18:43:56.861Z,38.28
2022-12-24T18:46:01.840Z,32.78
2022-12-24T18:48:07.053Z,32.35
2022-12-24T18:50:12.540Z,29.83
2022-12-24T18:52:22.464Z,33.15
2022-12-24T18:54:30.369Z,28.55
2022-12-24T18:56:35.584Z,37.08
2022-12-24T18:58:41.181Z,30.08
2022-12-24T19:00:46.512Z,27.92
2022-12-24T19:02:51.632Z,29.02
2022-12-24T19:04:56.681Z,33.67
2022-12-24T19:07:01.643Z,38.80
2022-12-24T19:09:06.912Z,35.28
2022-12-24T19:11:14.891Z,22.88
2022-12-24T19:15:26.515Z,31.67
2022-12-24T19:17:33.183Z,29.67
2022-12-24T19:19:38.134Z,26.17
2022-12-24T19:21:43.104Z,36.00
2022-12-24T19:23:49.358Z,31.50
2022-12-24T19:25:54.292Z,28.75
2022-12-24T19:28:02.242Z,44.35
2022-12-24T19:30:09.304Z,32.58
2022-12-24T19:32:14.428Z,28.80
2022-12-24T19:34:19.363Z,39.97
2022-12-24T19:36:26.961Z,28.95
2022-12-24T19:38:31.901Z,34.35
2022-12-24T19:40:39.400Z,37.03
2022-12-24T19:42:45.690Z,35.25
2022-12-24T19:44:53.177Z,40.05
2022-12-24T19:49:05.788Z,31.75
2022-12-24T19:51:14.193Z,39.83
2022-12-24T19:53:19.116Z,34.45
2022-12-24T19:55:24.071Z,33.67
2022-12-24T19:57:28.996Z,38.80
2022-12-24T19:59:33.974Z,38.42
2022-12-24T20:01:41.658Z,32.20
2022-12-24T20:03:48.622Z,40.30
2022-12-24T20:05:56.488Z,45.47
2022-12-24T20:10:06.596Z,37.13
2022-12-24T20:12:11.660Z,40.17
2022-12-24T20:14:16.966Z,42.03
2022-12-24T20:16:23.810Z,38.55
2022-12-24T20:18:31.326Z,32.05
2022-12-24T20:20:36.801Z,29.80
2022-12-24T20:22:41.758Z,33.60
2022-12-24T20:24:46.707Z,33.13
2022-12-24T20:26:51.618Z,33.70
2022-12-24T20:28:57.228Z,31.13
2022-12-24T20:31:02.308Z,35.28
2022-12-24T20:33:07.340Z,33.05
2022-12-24T20:35:15.060Z,33.28
2022-12-24T20:39:24.978Z,25.02
2022-12-24T20:41:32.211Z,30.83
2022-12-24T20:43:44.925Z,36.45
2022-12-24T20:45:52.942Z,38.33
2022-12-24T20:47:58.404Z,35.15
2022-12-24T20:50:03.530Z,36.95
2022-12-24T20:52:11.227Z,29.55
2022-12-24T20:54:16.605Z,31.23
2022-12-24T20:56:21.795Z,31.38
2022-12-24T20:58:26.940Z,27.80
2022-12-24T21:00:31.982Z,24.25
2022-12-24T21:04:44.947Z,25.25
2022-12-24T21:06:50.182Z,28.90
2022-12-24T21:08:58.139Z,28.90
2022-12-24T21:13:32.179Z,24.98
2022-12-24T21:15:39.766Z,23.67
2022-12-24T21:17:45.654Z,26.13
2022-12-24T21:19:51.006Z,33.85
2022-12-24T21:21:56.344Z,36.92
2022-12-24T21:24:04.690Z,21.85
2022-12-24T21:26:09.639Z,29.27
2022-12-24T21:28:17.629Z,31.83
2022-12-24T21:30:22.700Z,30.77
2022-12-24T21:32:28.333Z,27.83
2022-12-24T21:34:33.253Z,30.08
2022-12-24T21:36:38.159Z,29.63
2022-12-24T21:38:43.598Z,30.92
2022-12-24T21:41:01.857Z,27.05
2022-12-24T21:43:07.527Z,26.52
2022-12-24T21:45:14.369Z,24.88
2022-12-24T21:47:19.373Z,31.75
2022-12-24T21:49:36.796Z,35.58
2022-12-24T21:51:44.059Z,36.50
2022-12-24T21:54:01.514Z,31.33
2022-12-24T21:56:14.853Z,29.30
2022-12-24T21:58:17.674Z,30.38
2022-12-24T22:00:30.519Z,25.85
2022-12-24T22:02:35.548Z,35.17
2022-12-24T22:04:40.945Z,40.10
2022-12-24T22:06:58.833Z,29.95
2022-12-24T22:09:16.376Z,32.65
2022-12-24T22:11:36.386Z,24.55
2022-12-24T22:13:41.326Z,36.40
2022-12-24T22:15:50.033Z,25.02
2022-12-24T22:17:55.635Z,28.63
2022-12-24T22:20:01.616Z,35.22
2022-12-24T22:22:06.827Z,36.28
2022-12-24T22:24:12.432Z,40.92
2022-12-24T22:26:20.525Z,32.63
2022-12-24T22:28:28.445Z,33.20
2022-12-24T22:32:38.941Z,29.20
2022-12-24T22:34:43.990Z,41.90
2022-12-24T22:36:48.918Z,40.60
2022-12-24T22:38:54.274Z,33.13
2022-12-24T22:40:59.254Z,39.78
2022-12-24T22:43:05.007Z,36.40
2022-12-24T22:45:21.793Z,42.05
2022-12-24T22:49:32.398Z,33.85
2022-12-24T22:51:37.572Z,35.97
2022-12-24T22:53:43.846Z,42.22
2022-12-24T22:55:56.889Z,37.83
2022-12-24T22:58:02.747Z,35.08
2022-12-24T23:00:17.827Z,45.50
2022-12-24T23:02:28.061Z,32.33
2022-12-24T23:04:38.211Z,39.55
2022-12-24T23:06:44.656Z,37.67
2022-12-24T23:08:50.007Z,37.38
2022-12-24T23:10:55.660Z,32.42
2022-12-24T23:13:15.325Z,33.80
2022-12-24T23:15:23.146Z,43.92
2022-12-24T23:17:28.432Z,50.53
2022-12-24T23:19:34.153Z,48.15
2022-12-24T23:21:40.534Z,45.08
2022-12-24T23:23:45.493Z,44.35
2022-12-24T23:25:50.585Z,44.58
2022-12-24T23:27:55.917Z,39.90
2022-12-24T23:30:01.058Z,56.55
2022-12-24T23:32:08.665Z,51.97
2022-12-24T23:34:13.611Z,36.70
2022-12-24T23:36:19.752Z,34.47
2022-12-24T23:38:25.144Z,33.33
2022-12-24T23:40:30.095Z,28.73
2022-12-24T23:42:35.066Z,27.42
2022-12-24T23:44:42.521Z,34.25
2022-12-24T23:46:47.501Z,32.38
2022-12-24T23:48:57.263Z,45.00
2022-12-24T23:51:11.396Z,37.60
2022-12-24T23:53:17.625Z,42.13
2022-12-24T23:55:22.976Z,32.55
2022-12-24T23:57:27.953Z,31.23
2022-12-24T23:59:35.083Z,29.40
